createdAt,value
2022-09-30T00:00:42.405Z,36.00
2022-09-30T00:03:15.576Z,23.10
2022-09-30T00:05:28.867Z,5.40
2022-09-30T00:07:42.539Z,5.60
2022-09-30T00:09:55.772Z,4.50
2022-09-30T00:12:09.297Z,22.20
2022-09-30T00:14:24.829Z,9.70
2022-09-30T00:16:40.398Z,16.10
2022-09-30T00:18:54.233Z,19.70
2022-09-30T00:21:07.773Z,24.50
2022-09-30T00:23:21.054Z,19.30
2022-09-30T00:25:34.302Z,25.50
2022-09-30T00:27:47.560Z,19.60
2022-09-30T00:30:00.926Z,35.50
2022-09-30T00:32:14.413Z,38.60
2022-09-30T00:34:27.622Z,44.70
2022-09-30T00:36:44.476Z,27.80
2022-09-30T00:38:57.811Z,47.30
2022-09-30T00:41:11.450Z,37.20
2022-09-30T00:43:39.211Z,33.90
2022-09-30T00:45:58.366Z,60.20
2022-09-30T00:48:15.726Z,34.90
2022-09-30T00:50:40.186Z,26.70
2022-09-30T00:52:59.242Z,40.30
2022-09-30T00:55:23.943Z,53.80
2022-09-30T00:57:37.504Z,41.60
2022-09-30T00:59:53.933Z,33.10
2022-09-30T01:02:07.863Z,28.40
2022-09-30T01:04:24.327Z,33.00
2022-09-30T01:06:37.550Z,42.30
2022-09-30T01:08:51.862Z,41.60
2022-09-30T01:11:08.163Z,39.20
2022-09-30T01:13:23.719Z,28.20
2022-09-30T01:15:49.901Z,38.20
2022-09-30T01:18:12.536Z,33.50
2022-09-30T01:20:58.156Z,36.70
2022-09-30T01:23:31.351Z,15.70
2022-09-30T01:26:08.487Z,9.90
2022-09-30T01:28:52.706Z,6.20
2022-09-30T01:31:21.158Z,11.60
2022-09-30T01:33:45.968Z,11.00
2022-09-30T01:36:15.293Z,6.20
2022-09-30T01:38:34.504Z,7.30
2022-09-30T01:40:53.231Z,8.20
2022-09-30T01:43:14.091Z,10.70
2022-09-30T01:45:35.722Z,5.50
2022-09-30T01:47:54.948Z,6.80
2022-09-30T01:50:13.806Z,6.60
2022-09-30T01:52:30.467Z,4.50
2022-09-30T01:54:48.451Z,6.10
2022-09-30T01:57:06.926Z,11.20
2022-09-30T01:59:25.341Z,6.00
2022-09-30T02:01:43.159Z,10.90
2022-09-30T02:04:00.650Z,6.00
2022-09-30T02:06:19.340Z,7.40
2022-09-30T02:08:42.670Z,5.40
2022-09-30T02:11:01.371Z,10.80
2022-09-30T02:13:20.230Z,6.70
2022-09-30T02:15:40.625Z,7.50
2022-09-30T02:17:59.746Z,8.30
2022-09-30T02:20:17.942Z,8.80
2022-09-30T02:22:36.241Z,8.40
2022-09-30T02:24:51.044Z,8.40
2022-09-30T02:27:08.095Z,8.40
2022-09-30T02:29:25.258Z,7.50
2022-09-30T02:31:41.708Z,7.90
2022-09-30T02:33:58.599Z,7.30
2022-09-30T02:36:19.549Z,5.40
2022-09-30T02:38:38.447Z,9.90
2022-09-30T02:40:56.015Z,5.90
2022-09-30T02:43:10.701Z,8.60
2022-09-30T02:45:28.112Z,6.40
2022-09-30T02:47:53.441Z,11.10
2022-09-30T02:50:13.935Z,6.20
2022-09-30T02:52:32.961Z,6.40
2022-09-30T02:54:56.875Z,6.20
2022-09-30T02:57:19.014Z,9.30
2022-09-30T02:59:32.948Z,8.00
2022-09-30T03:01:47.061Z,8.40
2022-09-30T03:04:03.041Z,7.90
2022-09-30T03:06:17.273Z,7.50
2022-09-30T03:08:30.648Z,10.00
2022-09-30T03:10:44.662Z,10.80
2022-09-30T03:13:13.424Z,11.40
2022-09-30T03:15:40.997Z,6.20
2022-09-30T03:18:11.002Z,8.30
2022-09-30T03:20:37.995Z,11.50
2022-09-30T03:23:07.084Z,5.30
2022-09-30T03:25:33.114Z,9.80
2022-09-30T03:27:54.955Z,8.50
2022-09-30T03:30:13.899Z,10.00
2022-09-30T03:32:46.478Z,8.80
2022-09-30T03:35:12.849Z,8.50
2022-09-30T03:37:36.620Z,8.60
2022-09-30T03:40:00.410Z,10.00
2022-09-30T03:42:22.959Z,12.10
2022-09-30T03:44:44.747Z,11.00
2022-09-30T03:47:03.400Z,8.80
2022-09-30T03:49:19.657Z,12.50
2022-09-30T03:51:34.290Z,7.70
2022-09-30T03:53:48.746Z,7.50
2022-09-30T03:56:02.253Z,9.70
2022-09-30T03:58:15.676Z,12.40
2022-09-30T04:00:29.103Z,6.80
2022-09-30T04:02:42.916Z,8.90
2022-09-30T04:04:56.505Z,11.50
2022-09-30T04:07:10.602Z,7.90
2022-09-30T04:09:24.124Z,7.80
2022-09-30T04:11:37.575Z,9.50
2022-09-30T04:13:51.007Z,24.90
2022-09-30T04:16:04.576Z,54.50
2022-09-30T04:18:17.825Z,49.00
2022-09-30T04:20:31.166Z,41.10
2022-09-30T04:22:44.529Z,34.40
2022-09-30T04:24:57.792Z,41.80
2022-09-30T04:27:11.087Z,31.40
2022-09-30T04:29:24.617Z,31.30
2022-09-30T04:31:37.962Z,24.20
2022-09-30T04:33:51.932Z,27.00
2022-09-30T04:36:06.010Z,21.20
2022-09-30T04:38:19.199Z,23.40
2022-09-30T04:40:32.463Z,18.80
2022-09-30T04:42:46.274Z,72.30
2022-09-30T04:45:00.347Z,83.00
2022-09-30T04:47:13.818Z,96.10
2022-09-30T04:49:27.102Z,99.70
2022-09-30T04:51:45.074Z,84.70
2022-09-30T04:53:58.360Z,72.40
2022-09-30T04:56:12.608Z,70.60
2022-09-30T04:58:25.907Z,58.40
2022-09-30T05:00:39.647Z,47.00
2022-09-30T05:02:53.053Z,18.40
2022-09-30T05:05:06.320Z,13.10
2022-09-30T05:07:19.492Z,9.30
2022-09-30T05:09:32.917Z,14.20
2022-09-30T05:11:46.547Z,10.00
2022-09-30T05:13:59.810Z,7.10
2022-09-30T05:16:14.153Z,9.30
2022-09-30T05:18:28.453Z,5.90
2022-09-30T05:20:41.696Z,11.80
2022-09-30T05:23:00.068Z,14.00
2022-09-30T05:25:14.202Z,13.00
2022-09-30T05:27:28.056Z,11.60
2022-09-30T05:29:41.298Z,10.00
2022-09-30T05:31:54.799Z,12.30
2022-09-30T05:34:08.242Z,6.70
2022-09-30T05:36:22.533Z,15.30
2022-09-30T05:38:35.837Z,17.30
2022-09-30T05:40:49.114Z,8.20
2022-09-30T05:43:02.806Z,13.40
2022-09-30T05:45:16.848Z,9.40
2022-09-30T05:47:30.733Z,10.70
2022-09-30T05:49:44.108Z,9.30
2022-09-30T05:51:57.636Z,10.60
2022-09-30T05:54:10.965Z,10.00
2022-09-30T05:56:24.603Z,10.00
2022-09-30T05:58:38.033Z,9.90
2022-09-30T06:00:52.173Z,13.50
2022-09-30T06:03:05.504Z,9.30
2022-09-30T06:05:18.878Z,10.20
2022-09-30T06:07:32.133Z,11.90
2022-09-30T06:09:45.714Z,12.40
2022-09-30T06:11:59.344Z,9.20
2022-09-30T06:14:12.646Z,8.50
2022-09-30T06:16:25.985Z,6.90
2022-09-30T06:18:40.377Z,8.40
2022-09-30T06:20:54.335Z,10.30
2022-09-30T06:23:07.934Z,8.60
2022-09-30T06:25:21.678Z,8.80
2022-09-30T06:27:34.880Z,10.60
2022-09-30T06:29:48.107Z,27.40
2022-09-30T06:32:01.285Z,22.40
2022-09-30T06:34:14.588Z,14.70
2022-09-30T06:36:30.591Z,17.00
2022-09-30T06:38:43.962Z,26.70
2022-09-30T06:40:57.789Z,11.10
2022-09-30T06:43:11.839Z,15.10
2022-09-30T06:45:32.147Z,15.50
2022-09-30T06:47:57.686Z,11.90
2022-09-30T06:50:22.683Z,14.80
2022-09-30T06:52:38.452Z,11.90
2022-09-30T06:54:52.536Z,14.80
2022-09-30T06:57:05.823Z,7.90
2022-09-30T06:59:20.000Z,8.70
2022-09-30T07:01:33.317Z,5.90
2022-09-30T07:03:51.478Z,8.70
2022-09-30T07:06:09.433Z,7.50
2022-09-30T07:08:22.889Z,4.30
2022-09-30T07:10:36.189Z,6.90
2022-09-30T07:12:52.250Z,4.10
2022-09-30T07:15:07.420Z,4.30
2022-09-30T07:17:23.499Z,6.70
2022-09-30T07:19:37.401Z,4.70
2022-09-30T07:21:50.651Z,6.80
2022-09-30T07:24:04.113Z,6.10
2022-09-30T07:26:17.833Z,5.90
2022-09-30T07:28:32.706Z,7.40
2022-09-30T07:30:48.419Z,7.00
2022-09-30T07:33:01.599Z,4.00
2022-09-30T07:35:15.650Z,5.30
2022-09-30T07:37:33.877Z,5.90
2022-09-30T07:39:48.232Z,7.50
2022-09-30T07:42:03.390Z,3.90
2022-09-30T07:44:17.749Z,8.80
2022-09-30T07:46:32.891Z,4.30
2022-09-30T07:48:49.069Z,9.20
2022-09-30T07:51:02.349Z,7.80
2022-09-30T07:53:15.612Z,9.20
2022-09-30T07:55:28.785Z,7.00
2022-09-30T07:57:42.065Z,6.50
2022-09-30T07:59:55.325Z,4.90
2022-09-30T08:02:08.864Z,11.50
2022-09-30T08:04:23.745Z,7.80
2022-09-30T08:06:41.041Z,6.40
2022-09-30T08:08:57.335Z,6.50
2022-09-30T08:11:11.536Z,9.30
2022-09-30T08:13:24.752Z,5.60
2022-09-30T08:15:37.958Z,4.00
2022-09-30T08:17:51.313Z,5.50
2022-09-30T08:20:07.484Z,3.00
2022-09-30T08:22:24.014Z,6.20
2022-09-30T08:24:37.319Z,4.50
2022-09-30T08:26:50.754Z,6.40
2022-09-30T08:29:04.371Z,3.20
2022-09-30T08:31:19.580Z,5.10
2022-09-30T08:33:32.836Z,9.40
2022-09-30T08:35:45.998Z,11.20
2022-09-30T08:37:59.150Z,9.00
2022-09-30T08:40:22.591Z,6.40
2022-09-30T08:42:56.741Z,4.00
2022-09-30T08:45:19.098Z,6.10
2022-09-30T08:47:44.245Z,8.50
2022-09-30T08:50:07.079Z,7.20
2022-09-30T08:52:37.390Z,8.30
2022-09-30T08:55:00.128Z,6.50
2022-09-30T08:57:16.471Z,11.00
2022-09-30T08:59:39.367Z,12.10
2022-09-30T09:01:57.094Z,7.80
2022-09-30T09:04:11.460Z,7.50
2022-09-30T09:06:33.169Z,11.80
2022-09-30T09:08:59.770Z,10.60
2022-09-30T09:11:22.630Z,7.10
2022-09-30T09:13:53.852Z,11.70
2022-09-30T09:16:14.298Z,4.20
2022-09-30T09:18:55.644Z,8.70
2022-09-30T09:21:21.926Z,8.20
2022-09-30T09:23:37.281Z,9.80
2022-09-30T09:25:54.183Z,4.80
2022-09-30T09:28:09.814Z,5.20
2022-09-30T09:30:26.319Z,8.10
2022-09-30T09:32:40.251Z,8.70
2022-09-30T09:34:59.185Z,9.50
2022-09-30T09:37:22.845Z,6.40
2022-09-30T09:40:04.479Z,6.30
2022-09-30T09:42:33.735Z,6.70
2022-09-30T09:44:54.365Z,6.20
2022-09-30T09:47:16.306Z,6.90
2022-09-30T09:49:41.869Z,3.90
2022-09-30T09:52:08.240Z,6.90
2022-09-30T09:54:24.787Z,7.10
2022-09-30T09:56:39.011Z,5.60
2022-09-30T09:59:13.847Z,8.10
2022-09-30T10:01:35.444Z,6.10
2022-09-30T10:03:49.567Z,4.00
2022-09-30T10:06:11.442Z,5.00
2022-09-30T10:08:26.157Z,5.30
2022-09-30T10:10:49.981Z,7.30
2022-09-30T10:13:03.283Z,7.40
2022-09-30T10:15:28.795Z,5.00
2022-09-30T10:17:43.827Z,3.50
2022-09-30T10:20:02.100Z,6.90
2022-09-30T10:22:31.674Z,6.20
2022-09-30T10:24:45.718Z,5.50
2022-09-30T10:26:59.311Z,6.00
2022-09-30T10:29:33.276Z,7.40
2022-09-30T10:31:48.481Z,3.40
2022-09-30T10:34:05.551Z,5.80
2022-09-30T10:36:22.464Z,5.30
2022-09-30T10:38:37.754Z,9.20
2022-09-30T10:40:54.759Z,4.50
2022-09-30T10:43:08.080Z,9.60
2022-09-30T10:45:28.084Z,6.60
2022-09-30T10:47:47.521Z,6.70
2022-09-30T10:50:05.985Z,6.90
2022-09-30T10:52:25.836Z,9.00
2022-09-30T10:54:55.043Z,9.60
2022-09-30T10:57:09.923Z,11.50
2022-09-30T10:59:40.894Z,10.20
2022-09-30T11:02:00.011Z,7.30
2022-09-30T11:04:22.653Z,9.10
2022-09-30T11:06:41.013Z,10.50
2022-09-30T11:09:00.970Z,11.10
2022-09-30T11:11:18.684Z,7.20
2022-09-30T11:13:38.731Z,5.90
2022-09-30T11:16:09.930Z,11.60
2022-09-30T11:18:28.751Z,9.00
2022-09-30T11:20:49.286Z,6.30
2022-09-30T11:23:07.797Z,8.10
2022-09-30T11:25:27.721Z,9.00
2022-09-30T11:27:54.825Z,8.30
2022-09-30T11:30:16.950Z,5.60
2022-09-30T11:32:42.902Z,8.90
2022-09-30T11:35:04.993Z,9.50
2022-09-30T11:37:27.521Z,5.00
2022-09-30T11:40:18.520Z,12.10
2022-09-30T11:42:37.961Z,17.30
2022-09-30T11:44:57.287Z,10.20
2022-09-30T11:47:44.218Z,9.40
2022-09-30T11:50:23.127Z,7.50
2022-09-30T11:52:46.259Z,10.20
2022-09-30T11:55:15.450Z,7.90
2022-09-30T11:57:34.901Z,7.10
2022-09-30T11:59:54.267Z,8.90
2022-09-30T12:02:17.302Z,4.40
2022-09-30T12:04:35.233Z,9.30
2022-09-30T12:06:52.927Z,6.80
2022-09-30T12:09:16.197Z,7.30
2022-09-30T12:11:37.259Z,8.30
2022-09-30T12:13:55.483Z,10.70
2022-09-30T12:16:12.775Z,7.60
2022-09-30T12:18:30.396Z,6.60
2022-09-30T12:20:46.283Z,5.10
2022-09-30T12:23:04.365Z,11.40
2022-09-30T12:25:23.542Z,8.90
2022-09-30T12:27:42.895Z,9.90
2022-09-30T12:30:20.717Z,6.60
2022-09-30T12:33:12.012Z,6.00
2022-09-30T12:35:44.688Z,10.50
2022-09-30T12:38:13.941Z,7.80
2022-09-30T12:40:44.647Z,7.80
2022-09-30T12:43:19.364Z,8.90
2022-09-30T12:45:57.082Z,11.60
2022-09-30T12:48:17.312Z,9.80
2022-09-30T12:50:36.616Z,8.70
2022-09-30T12:52:50.269Z,5.80
2022-09-30T12:55:06.903Z,7.60
2022-09-30T12:57:27.769Z,10.50
2022-09-30T12:59:50.546Z,10.40
2022-09-30T13:02:05.588Z,7.40
2022-09-30T13:04:36.313Z,10.60
2022-09-30T13:07:20.358Z,12.50
2022-09-30T13:09:40.902Z,13.30
2022-09-30T13:12:14.761Z,13.50
2022-09-30T13:14:44.732Z,10.10
2022-09-30T13:17:29.442Z,9.50
2022-09-30T13:19:45.636Z,18.60
2022-09-30T13:22:18.669Z,10.50
2022-09-30T13:25:15.042Z,10.90
2022-09-30T13:27:40.367Z,11.60
2022-09-30T13:29:56.349Z,14.40
2022-09-30T13:32:14.080Z,13.20
2022-09-30T13:34:32.370Z,14.30
2022-09-30T13:37:03.883Z,7.50
2022-09-30T13:39:28.755Z,12.20
2022-09-30T13:41:43.382Z,8.60
2022-09-30T13:44:03.704Z,9.50
2022-09-30T13:46:25.853Z,9.20
2022-09-30T13:48:42.953Z,11.80
2022-09-30T13:50:58.203Z,9.40
2022-09-30T13:53:18.462Z,8.80
2022-09-30T13:55:38.301Z,9.80
2022-09-30T13:58:04.008Z,9.20
2022-09-30T14:00:22.614Z,10.00
2022-09-30T14:03:05.138Z,15.40
2022-09-30T14:05:44.851Z,7.60
2022-09-30T14:08:17.791Z,8.90
2022-09-30T14:13:01.755Z,10.10
2022-09-30T14:15:58.968Z,9.30
2022-09-30T14:18:56.275Z,17.70
2022-09-30T14:21:27.131Z,8.40
2022-09-30T14:23:40.566Z,11.40
2022-09-30T14:26:00.894Z,12.40
2022-09-30T14:28:19.890Z,5.70
2022-09-30T14:30:35.975Z,9.30
2022-09-30T14:32:51.639Z,12.70
2022-09-30T14:35:09.402Z,11.90
2022-09-30T14:37:27.346Z,7.60
2022-09-30T14:39:42.467Z,8.60
2022-09-30T14:41:59.773Z,5.80
2022-09-30T14:44:21.087Z,7.20
2022-09-30T14:46:38.478Z,12.60
2022-09-30T14:48:52.960Z,8.30
2022-09-30T14:51:10.897Z,13.10
2022-09-30T14:53:35.333Z,10.20
2022-09-30T14:55:52.767Z,8.60
2022-09-30T14:58:29.577Z,14.70
2022-09-30T15:00:43.359Z,11.10
2022-09-30T15:02:56.724Z,11.30
2022-09-30T15:05:15.688Z,12.70
2022-09-30T15:07:28.878Z,11.80
2022-09-30T15:09:45.039Z,8.30
2022-09-30T15:12:00.243Z,14.30
2022-09-30T15:14:19.697Z,11.40
2022-09-30T15:16:35.444Z,18.60
2022-09-30T15:18:53.072Z,16.70
2022-09-30T15:21:12.201Z,11.80
2022-09-30T15:23:29.464Z,12.80
2022-09-30T15:25:43.251Z,14.30
2022-09-30T15:27:57.356Z,19.00
2022-09-30T15:30:25.583Z,12.80
2022-09-30T15:34:53.806Z,9.60
2022-09-30T15:37:10.584Z,8.30
2022-09-30T15:39:49.036Z,5.50
2022-09-30T15:42:02.342Z,7.30
2022-09-30T15:44:22.444Z,6.80
2022-09-30T15:46:40.055Z,6.40
2022-09-30T15:48:53.596Z,7.10
2022-09-30T15:51:26.472Z,5.60
2022-09-30T15:56:03.215Z,7.90
2022-09-30T15:58:40.415Z,8.10
2022-09-30T16:00:55.340Z,8.60
2022-09-30T16:03:28.517Z,7.50
2022-09-30T16:05:43.172Z,6.90
2022-09-30T16:07:56.677Z,5.20
2022-09-30T16:10:10.840Z,9.20
2022-09-30T16:12:27.526Z,6.20
2022-09-30T16:14:50.081Z,7.50
2022-09-30T16:17:05.596Z,13.80
2022-09-30T16:19:25.731Z,5.10
2022-09-30T16:21:51.992Z,8.20
2022-09-30T16:24:05.764Z,8.10
2022-09-30T16:26:33.136Z,6.60
2022-09-30T16:28:47.360Z,8.30
2022-09-30T16:31:00.695Z,6.80
2022-09-30T16:33:16.637Z,9.40
2022-09-30T16:35:32.465Z,6.50
2022-09-30T16:37:46.065Z,8.50
2022-09-30T16:39:59.745Z,4.70
2022-09-30T16:42:16.198Z,11.40
2022-09-30T16:44:29.482Z,17.40
2022-09-30T16:46:42.861Z,19.00
2022-09-30T16:48:56.530Z,5.30
2022-09-30T16:51:15.956Z,8.40
2022-09-30T16:53:29.188Z,7.60
2022-09-30T16:55:42.352Z,7.10
2022-09-30T16:57:55.565Z,7.80
2022-09-30T17:00:10.367Z,4.70
2022-09-30T17:02:23.606Z,6.50
2022-09-30T17:04:39.836Z,5.00
2022-09-30T17:06:53.359Z,8.50
2022-09-30T17:09:06.745Z,5.70
2022-09-30T17:11:20.800Z,4.70
2022-09-30T17:13:34.175Z,6.60
2022-09-30T17:15:51.312Z,5.00
2022-09-30T17:18:08.493Z,7.60
2022-09-30T17:20:22.880Z,7.00
2022-09-30T17:22:36.267Z,8.80
2022-09-30T17:24:49.506Z,10.10
2022-09-30T17:27:02.666Z,4.00
2022-09-30T17:29:31.445Z,5.80
2022-09-30T17:31:45.045Z,6.40
2022-09-30T17:33:58.738Z,7.50
2022-09-30T17:36:14.851Z,7.40
2022-09-30T17:38:27.980Z,6.30
2022-09-30T17:40:57.380Z,5.20
2022-09-30T17:43:12.228Z,5.80
2022-09-30T17:45:27.178Z,3.70
2022-09-30T17:47:43.445Z,4.60
2022-09-30T17:49:57.266Z,5.10
2022-09-30T17:52:10.754Z,8.10
2022-09-30T17:54:24.668Z,5.80
2022-09-30T17:56:39.133Z,3.30
2022-09-30T17:58:53.437Z,4.80
2022-09-30T18:01:12.540Z,3.90
2022-09-30T18:03:25.829Z,7.60
2022-09-30T18:05:39.933Z,9.70
2022-09-30T18:07:53.655Z,5.90
2022-09-30T18:10:06.927Z,7.10
2022-09-30T18:12:20.443Z,14.90
2022-09-30T18:14:36.451Z,31.10
2022-09-30T18:16:49.992Z,17.60
2022-09-30T18:19:05.174Z,12.80
2022-09-30T18:21:19.707Z,22.20
2022-09-30T18:23:33.031Z,19.30
2022-09-30T18:25:46.846Z,22.60
2022-09-30T18:28:03.441Z,19.10
2022-09-30T18:30:19.653Z,15.20
2022-09-30T18:32:32.740Z,19.90
2022-09-30T18:34:45.863Z,25.10
2022-09-30T18:36:59.618Z,23.30
2022-09-30T18:39:13.055Z,22.70
2022-09-30T18:41:26.524Z,16.30
2022-09-30T18:43:40.749Z,29.10
2022-09-30T18:45:59.064Z,14.50
2022-09-30T18:48:12.618Z,22.00
2022-09-30T18:50:26.280Z,24.20
2022-09-30T18:52:39.640Z,18.40
2022-09-30T18:54:53.024Z,24.30
2022-09-30T18:57:06.371Z,27.70
2022-09-30T18:59:23.257Z,14.60
2022-09-30T19:01:37.821Z,22.60
2022-09-30T19:03:51.551Z,15.00
2022-09-30T19:06:09.531Z,14.80
2022-09-30T19:08:22.959Z,17.00
2022-09-30T19:10:36.614Z,21.20
2022-09-30T19:12:50.999Z,20.60
2022-09-30T19:15:04.212Z,18.20
2022-09-30T19:17:18.001Z,16.70
2022-09-30T19:19:31.475Z,21.70
2022-09-30T19:21:45.974Z,26.70
2022-09-30T19:24:00.053Z,27.70
2022-09-30T19:26:14.056Z,25.30
2022-09-30T19:28:27.283Z,23.70
2022-09-30T19:30:43.273Z,19.60
2022-09-30T19:33:01.993Z,23.50
2022-09-30T19:35:18.458Z,22.30
2022-09-30T19:37:32.069Z,20.20
2022-09-30T19:39:46.316Z,27.10
2022-09-30T19:42:03.327Z,11.80
2022-09-30T19:44:19.862Z,17.10
2022-09-30T19:46:33.193Z,27.40
2022-09-30T19:48:49.552Z,12.90
2022-09-30T19:51:08.074Z,16.90
2022-09-30T19:53:29.901Z,15.30
2022-09-30T19:55:50.276Z,21.30
2022-09-30T19:58:04.229Z,19.10
2022-09-30T20:00:18.456Z,13.30
2022-09-30T20:02:31.848Z,23.10
2022-09-30T20:04:46.582Z,11.30
2022-09-30T20:06:59.845Z,17.80
2022-09-30T20:09:13.333Z,26.90
2022-09-30T20:11:27.462Z,19.70
2022-09-30T20:13:41.009Z,26.00
2022-09-30T20:15:54.211Z,28.80
2022-09-30T20:18:07.806Z,20.80
2022-09-30T20:20:43.234Z,17.00
2022-09-30T20:22:56.458Z,16.90
2022-09-30T20:25:11.786Z,29.10
2022-09-30T20:27:24.997Z,16.50
2022-09-30T20:29:38.220Z,19.00
2022-09-30T20:31:52.567Z,20.80
2022-09-30T20:34:06.401Z,12.50
2022-09-30T20:36:21.230Z,13.80
2022-09-30T20:38:34.624Z,12.50
2022-09-30T20:40:47.913Z,11.10
2022-09-30T20:43:05.194Z,16.30
2022-09-30T20:45:19.304Z,26.00
2022-09-30T20:47:32.818Z,19.00
2022-09-30T20:49:46.081Z,17.80
2022-09-30T20:51:59.395Z,23.70
2022-09-30T20:54:12.730Z,18.80
2022-09-30T20:56:28.348Z,14.40
2022-09-30T20:58:42.940Z,19.50
2022-09-30T21:00:56.264Z,17.00
2022-09-30T21:03:10.933Z,18.20
2022-09-30T21:05:24.410Z,10.80
2022-09-30T21:07:38.425Z,19.10
2022-09-30T21:09:51.637Z,28.30
2022-09-30T21:12:05.105Z,17.50
2022-09-30T21:14:19.508Z,30.30
2022-09-30T21:16:33.031Z,15.20
2022-09-30T21:18:46.986Z,17.00
2022-09-30T21:21:04.238Z,19.70
2022-09-30T21:23:19.181Z,28.30
2022-09-30T21:25:33.111Z,28.00
2022-09-30T21:27:48.820Z,30.00
2022-09-30T21:30:02.201Z,17.70
2022-09-30T21:32:16.650Z,34.50
2022-09-30T21:34:30.081Z,19.40
2022-09-30T21:36:43.877Z,20.90
2022-09-30T21:38:57.824Z,22.40
2022-09-30T21:41:11.971Z,17.90
2022-09-30T21:43:25.235Z,17.40
2022-09-30T21:45:38.686Z,14.20
2022-09-30T21:47:52.029Z,15.90
2022-09-30T21:50:07.619Z,26.00
2022-09-30T21:52:21.934Z,11.30
2022-09-30T21:54:35.168Z,16.50
2022-09-30T21:56:49.674Z,16.70
2022-09-30T21:59:03.111Z,14.80
2022-09-30T22:01:16.606Z,22.80
2022-09-30T22:03:31.637Z,8.50
2022-09-30T22:05:44.770Z,19.70
2022-09-30T22:08:00.700Z,23.10
2022-09-30T22:10:14.847Z,8.20
2022-09-30T22:12:28.062Z,29.70
2022-09-30T22:14:41.866Z,24.20
2022-09-30T22:16:56.955Z,18.60
2022-09-30T22:19:11.927Z,10.10
2022-09-30T22:21:25.377Z,3.80
2022-09-30T22:23:38.839Z,2.90
2022-09-30T22:25:52.211Z,3.30
2022-09-30T22:28:06.051Z,4.50
2022-09-30T22:30:19.633Z,5.20
2022-09-30T22:32:33.313Z,3.20
2022-09-30T22:35:14.261Z,4.20
2022-09-30T22:37:43.504Z,4.40
2022-09-30T22:40:00.736Z,4.10
2022-09-30T22:42:14.391Z,5.40
2022-09-30T22:44:29.189Z,3.70
2022-09-30T22:46:43.217Z,6.50
2022-09-30T22:48:56.757Z,10.00
2022-09-30T22:51:17.565Z,6.30
2022-09-30T22:53:32.319Z,3.70
2022-09-30T22:55:45.924Z,3.70
2022-09-30T22:57:59.234Z,2.80
2022-09-30T23:00:14.222Z,18.50
2022-09-30T23:02:27.585Z,6.20
2022-09-30T23:04:41.119Z,4.80
2022-09-30T23:06:56.582Z,3.40
2022-09-30T23:09:11.602Z,5.10
2022-09-30T23:11:25.595Z,3.50
2022-09-30T23:13:37.992Z,8.30
2022-09-30T23:15:51.505Z,4.20
2022-09-30T23:18:04.684Z,4.70
2022-09-30T23:20:18.231Z,5.50
2022-09-30T23:22:31.689Z,2.80
2022-09-30T23:24:44.932Z,4.40
2022-09-30T23:26:58.246Z,4.60
2022-09-30T23:29:14.121Z,4.20
2022-09-30T23:31:27.666Z,7.00
2022-09-30T23:33:42.866Z,6.10
2022-09-30T23:35:57.270Z,4.50
2022-09-30T23:38:10.851Z,4.10
2022-09-30T23:40:24.161Z,5.00
2022-09-30T23:42:37.459Z,5.50
2022-09-30T23:44:50.682Z,4.00
2022-09-30T23:47:22.606Z,4.20
2022-09-30T23:49:36.951Z,8.30
2022-09-30T23:51:50.231Z,4.40
2022-09-30T23:54:04.103Z,8.30
2022-09-30T23:56:20.396Z,5.60
2022-09-30T23:58:34.287Z,5.40
